createdAt,value
2019-03-01T00:00:13.111Z,83.52
2019-03-01T00:02:41.606Z,83.29
2019-03-01T00:05:29.891Z,83.29
2019-03-01T00:08:15.270Z,83.68
2019-03-01T00:11:04.899Z,83.52
2019-03-01T00:13:58.539Z,83.90
2019-03-01T00:16:46.662Z,83.67
2019-03-01T00:19:18.326Z,83.20
2019-03-01T00:22:11.295Z,83.65
2019-03-01T00:24:58.235Z,83.65
2019-03-01T00:27:44.631Z,83.64
2019-03-01T00:30:34.674Z,83.59
2019-03-01T00:33:18.153Z,83.53
2019-03-01T00:36:09.255Z,83.48
2019-03-01T00:38:52.940Z,83.45
2019-03-01T00:41:30.516Z,83.69
2019-03-01T00:44:05.108Z,83.69
2019-03-01T00:46:33.564Z,83.29
2019-03-01T00:49:02.052Z,83.12
2019-03-01T00:51:30.505Z,83.04
2019-03-01T00:53:58.981Z,82.80
2019-03-01T00:56:27.474Z,82.77
2019-03-01T00:58:56.605Z,82.82
2019-03-01T01:01:25.065Z,82.82
2019-03-01T01:03:53.546Z,82.46
2019-03-01T01:06:22.006Z,82.48
2019-03-01T01:08:50.469Z,82.40
2019-03-01T01:11:18.994Z,82.31
2019-03-01T01:13:47.467Z,82.35
2019-03-01T01:16:15.933Z,82.08
2019-03-01T01:18:44.424Z,82.16
2019-03-01T01:21:12.881Z,81.75
2019-03-01T01:23:41.338Z,81.96
2019-03-01T01:26:09.822Z,81.75
2019-03-01T01:28:38.426Z,81.58
2019-03-01T01:31:06.883Z,81.50
2019-03-01T01:33:35.397Z,81.54
2019-03-01T01:36:03.863Z,81.61
2019-03-01T01:38:32.325Z,81.69
2019-03-01T01:41:04.332Z,81.76
2019-03-01T01:43:32.785Z,81.30
2019-03-01T01:46:01.251Z,81.30
2019-03-01T01:48:29.746Z,81.52
2019-03-01T01:50:58.221Z,81.44
2019-03-01T01:53:26.703Z,81.45
2019-03-01T01:55:55.190Z,81.39
2019-03-01T01:58:23.659Z,81.90
2019-03-01T02:00:52.117Z,81.90
2019-03-01T02:03:20.644Z,81.60
2019-03-01T02:05:49.185Z,81.67
2019-03-01T02:08:17.723Z,81.62
2019-03-01T02:10:46.238Z,81.67
2019-03-01T02:13:14.687Z,81.70
2019-03-01T02:15:43.139Z,81.78
2019-03-01T02:18:11.642Z,81.72
2019-03-01T02:20:40.096Z,81.70
2019-03-01T02:23:08.569Z,81.74
2019-03-01T02:25:37.067Z,81.70
2019-03-01T02:28:05.544Z,81.77
2019-03-01T02:30:46.136Z,81.79
2019-03-01T02:33:14.600Z,81.72
2019-03-01T02:35:43.127Z,81.66
2019-03-01T02:38:11.612Z,81.60
2019-03-01T02:40:40.063Z,81.65
2019-03-01T02:43:08.658Z,81.71
2019-03-01T02:45:37.153Z,81.69
2019-03-01T02:48:05.709Z,81.66
2019-03-01T02:50:34.152Z,81.68
2019-03-01T02:53:02.653Z,81.61
2019-03-01T02:55:31.125Z,81.59
2019-03-01T02:57:59.584Z,81.61
2019-03-01T03:00:29.715Z,81.67
2019-03-01T03:02:58.259Z,81.73
2019-03-01T03:05:26.725Z,81.86
2019-03-01T03:07:56.864Z,81.95
2019-03-01T03:10:25.391Z,81.99
2019-03-01T03:12:56.624Z,82.08
2019-03-01T03:15:29.686Z,82.16
2019-03-01T03:17:58.126Z,82.52
2019-03-01T03:20:26.597Z,82.52
2019-03-01T03:22:55.093Z,82.07
2019-03-01T03:25:23.547Z,82.37
2019-03-01T03:27:52.031Z,82.37
2019-03-01T03:30:20.982Z,82.21
2019-03-01T03:32:49.465Z,82.21
2019-03-01T03:35:17.920Z,82.52
2019-03-01T03:37:46.428Z,82.65
2019-03-01T03:40:15.886Z,82.67
2019-03-01T03:42:44.535Z,82.67
2019-03-01T03:45:19.705Z,82.61
2019-03-01T03:47:48.151Z,82.43
2019-03-01T03:50:16.800Z,82.43
2019-03-01T03:52:45.316Z,82.32
2019-03-01T03:55:15.882Z,82.26
2019-03-01T03:57:44.363Z,81.93
2019-03-01T04:00:15.527Z,81.85
2019-03-01T04:02:44.002Z,81.46
2019-03-01T04:05:12.538Z,81.37
2019-03-01T04:07:41.097Z,81.76
2019-03-01T04:10:11.100Z,81.76
2019-03-01T04:12:39.631Z,81.35
2019-03-01T04:15:10.663Z,81.30
2019-03-01T04:17:39.137Z,81.21
2019-03-01T04:20:20.033Z,81.21
2019-03-01T04:22:48.578Z,81.08
2019-03-01T04:25:17.052Z,80.96
2019-03-01T04:27:45.587Z,80.97
2019-03-01T04:30:18.127Z,80.76
2019-03-01T04:32:46.871Z,80.67
2019-03-01T04:35:15.631Z,80.67
2019-03-01T04:37:44.093Z,80.57
2019-03-01T04:40:15.958Z,80.99
2019-03-01T04:42:44.547Z,80.99
2019-03-01T04:45:17.789Z,81.57
2019-03-01T04:47:47.236Z,81.57
2019-03-01T04:50:15.769Z,81.49
2019-03-01T04:52:44.221Z,81.89
2019-03-01T04:55:15.339Z,81.66
2019-03-01T04:57:43.800Z,81.43
2019-03-01T05:00:19.950Z,81.44
2019-03-01T05:02:48.441Z,81.44
2019-03-01T05:05:17.261Z,81.76
2019-03-01T05:07:45.859Z,81.64
2019-03-01T05:10:15.429Z,81.56
2019-03-01T05:12:43.913Z,81.62
2019-03-01T05:15:21.007Z,82.07
2019-03-01T05:17:49.470Z,81.64
2019-03-01T05:20:17.929Z,81.73
2019-03-01T05:22:46.506Z,81.73
2019-03-01T05:25:14.979Z,81.87
2019-03-01T05:27:43.450Z,81.81
2019-03-01T05:30:14.295Z,81.81
2019-03-01T05:32:42.766Z,82.19
2019-03-01T05:35:11.463Z,82.28
2019-03-01T05:37:39.953Z,82.34
2019-03-01T05:40:11.169Z,82.51
2019-03-01T05:42:39.646Z,82.42
2019-03-01T05:45:16.308Z,82.42
2019-03-01T05:47:44.780Z,81.86
2019-03-01T05:50:14.940Z,82.25
2019-03-01T05:52:43.495Z,82.25
2019-03-01T05:55:12.904Z,82.36
2019-03-01T05:58:17.942Z,82.93
2019-03-01T06:00:47.063Z,82.16
2019-03-01T06:03:43.047Z,82.04
2019-03-01T06:06:29.442Z,82.70
2019-03-01T06:09:06.409Z,82.20
2019-03-01T06:11:43.735Z,82.04
2019-03-01T06:14:24.333Z,82.00
2019-03-01T06:17:19.571Z,82.00
2019-03-01T06:19:54.196Z,81.41
2019-03-01T06:22:25.838Z,81.41
2019-03-01T06:25:03.158Z,81.74
2019-03-01T06:27:40.238Z,81.65
2019-03-01T06:30:26.928Z,81.65
2019-03-01T06:33:01.301Z,81.54
2019-03-01T06:35:51.195Z,81.50
2019-03-01T06:38:49.858Z,81.62
2019-03-01T06:41:40.936Z,81.72
2019-03-01T06:44:39.487Z,82.18
2019-03-01T06:47:37.589Z,82.18
2019-03-01T06:50:23.807Z,81.86
2019-03-01T06:52:52.481Z,81.76
2019-03-01T06:55:30.288Z,81.76
2019-03-01T06:57:58.793Z,81.95
2019-03-01T07:00:28.403Z,82.17
2019-03-01T07:03:00.773Z,82.26
2019-03-01T07:05:29.265Z,82.09
2019-03-01T07:07:57.716Z,81.90
2019-03-01T07:10:26.180Z,81.96
2019-03-01T07:12:54.688Z,82.17
2019-03-01T07:15:23.164Z,82.21
2019-03-01T07:17:51.632Z,82.22
2019-03-01T07:20:20.147Z,82.31
2019-03-01T07:22:48.669Z,82.27
2019-03-01T07:25:17.122Z,82.21
2019-03-01T07:27:45.634Z,82.24
2019-03-01T07:30:14.103Z,82.30
2019-03-01T07:32:42.865Z,82.15
2019-03-01T07:35:11.460Z,82.04
2019-03-01T07:37:39.912Z,82.32
2019-03-01T07:40:10.902Z,82.41
2019-03-01T07:42:39.393Z,82.15
2019-03-01T07:45:10.368Z,81.96
2019-03-01T07:47:38.856Z,81.83
2019-03-01T07:50:14.025Z,81.63
2019-03-01T07:52:42.559Z,81.56
2019-03-01T07:55:12.986Z,81.34
2019-03-01T07:57:41.499Z,81.45
2019-03-01T08:00:15.035Z,81.64
2019-03-01T08:02:45.502Z,81.65
2019-03-01T08:05:16.323Z,81.62
2019-03-01T08:07:44.603Z,81.68
2019-03-01T08:10:20.838Z,81.93
2019-03-01T08:12:44.330Z,81.92
2019-03-01T08:15:18.948Z,81.95
2019-03-01T08:17:47.415Z,81.95
2019-03-01T08:20:18.025Z,81.82
2019-03-01T08:22:48.979Z,81.69
2019-03-01T08:25:22.583Z,81.60
2019-03-01T08:27:48.445Z,81.34
2019-03-01T08:30:18.025Z,81.21
2019-03-01T08:32:46.569Z,81.03
2019-03-01T08:35:16.987Z,80.80
2019-03-01T08:37:45.450Z,80.95
2019-03-01T08:40:20.150Z,80.97
2019-03-01T08:42:48.649Z,80.79
2019-03-01T08:45:18.445Z,80.54
2019-03-01T08:47:48.616Z,80.28
2019-03-01T08:50:17.574Z,80.17
2019-03-01T08:52:46.580Z,80.03
2019-03-01T08:55:17.376Z,79.91
2019-03-01T08:57:46.062Z,79.89
2019-03-01T09:00:26.598Z,79.88
2019-03-01T09:02:55.725Z,79.60
2019-03-01T09:05:24.229Z,79.20
2019-03-01T09:07:52.707Z,79.15
2019-03-01T09:10:21.206Z,78.83
2019-03-01T09:12:49.717Z,78.48
2019-03-01T09:15:18.173Z,77.89
2019-03-01T09:17:46.801Z,77.66
2019-03-01T09:20:16.220Z,77.25
2019-03-01T09:22:44.880Z,77.13
2019-03-01T09:25:14.916Z,77.07
2019-03-01T09:27:43.476Z,76.99
2019-03-01T09:30:18.025Z,76.75
2019-03-01T09:32:46.531Z,76.17
2019-03-01T09:35:34.903Z,75.82
2019-03-01T09:38:04.558Z,75.38
2019-03-01T09:40:33.739Z,75.36
2019-03-01T09:43:02.273Z,75.76
2019-03-01T09:45:36.175Z,75.92
2019-03-01T09:48:00.978Z,75.44
2019-03-01T09:50:31.612Z,75.00
2019-03-01T09:53:01.483Z,73.85
2019-03-01T09:55:30.020Z,73.98
2019-03-01T09:57:58.681Z,73.68
2019-03-01T10:00:29.597Z,73.33
2019-03-01T10:02:58.660Z,73.68
2019-03-01T10:05:27.196Z,73.02
2019-03-01T10:07:55.695Z,71.90
2019-03-01T10:10:30.184Z,71.44
2019-03-01T10:12:58.656Z,71.68
2019-03-01T10:15:27.147Z,71.87
2019-03-01T10:17:55.601Z,71.10
2019-03-01T10:20:26.018Z,70.65
2019-03-01T10:22:54.285Z,69.58
2019-03-01T10:25:22.838Z,69.70
2019-03-01T10:27:51.377Z,69.11
2019-03-01T10:30:25.819Z,69.02
2019-03-01T10:32:54.271Z,68.53
2019-03-01T10:35:22.727Z,68.44
2019-03-01T10:37:51.279Z,67.26
2019-03-01T10:40:21.182Z,66.78
2019-03-01T10:42:49.636Z,66.79
2019-03-01T10:45:23.294Z,66.19
2019-03-01T10:47:51.817Z,65.64
2019-03-01T10:50:20.285Z,64.98
2019-03-01T10:52:48.767Z,64.01
2019-03-01T10:55:18.573Z,62.49
2019-03-01T10:57:47.506Z,62.60
2019-03-01T11:00:29.835Z,62.19
2019-03-01T11:02:58.747Z,61.67
2019-03-01T11:05:27.583Z,61.77
2019-03-01T11:07:57.629Z,60.87
2019-03-01T11:10:40.098Z,60.06
2019-03-01T11:13:10.728Z,59.00
2019-03-01T11:15:39.192Z,59.18
2019-03-01T11:18:07.725Z,59.57
2019-03-01T11:20:36.217Z,59.97
2019-03-01T11:23:04.731Z,59.51
2019-03-01T11:25:33.182Z,59.34
2019-03-01T11:28:01.693Z,59.74
2019-03-01T11:30:31.698Z,59.19
2019-03-01T11:33:00.251Z,58.85
2019-03-01T11:35:28.840Z,59.73
2019-03-01T11:37:57.293Z,60.56
2019-03-01T11:40:36.076Z,60.27
2019-03-01T11:43:05.096Z,59.90
2019-03-01T11:45:33.558Z,59.22
2019-03-01T11:48:04.241Z,60.09
2019-03-01T11:50:32.734Z,60.71
2019-03-01T11:53:01.189Z,60.92
2019-03-01T11:55:29.698Z,61.19
2019-03-01T11:57:58.143Z,61.69
2019-03-01T12:00:29.326Z,62.04
2019-03-01T12:02:57.822Z,62.46
2019-03-01T12:05:26.295Z,62.54
2019-03-01T12:07:54.796Z,62.41
2019-03-01T12:10:28.853Z,62.03
2019-03-01T12:12:57.383Z,62.02
2019-03-01T12:15:25.838Z,61.82
2019-03-01T12:17:54.305Z,61.18
2019-03-01T12:20:32.452Z,61.52
2019-03-01T12:23:01.829Z,61.92
2019-03-01T12:25:30.279Z,62.23
2019-03-01T12:27:58.741Z,62.36
2019-03-01T12:30:27.619Z,62.32
2019-03-01T12:32:56.148Z,62.38
2019-03-01T12:35:24.756Z,62.04
2019-03-01T12:37:53.262Z,62.01
2019-03-01T12:40:24.249Z,62.09
2019-03-01T12:42:52.698Z,62.13
2019-03-01T12:45:21.211Z,62.78
2019-03-01T12:47:49.826Z,62.82
2019-03-01T12:50:18.364Z,62.74
2019-03-01T12:52:46.854Z,62.67
2019-03-01T12:55:21.581Z,62.84
2019-03-01T12:57:50.035Z,62.98
2019-03-01T13:00:23.977Z,63.06
2019-03-01T13:02:52.443Z,63.32
2019-03-01T13:05:20.906Z,63.57
2019-03-01T13:07:49.440Z,63.82
2019-03-01T13:10:23.881Z,64.25
2019-03-01T13:12:54.548Z,64.54
2019-03-01T13:15:22.590Z,64.58
2019-03-01T13:17:51.109Z,64.44
2019-03-01T13:20:19.840Z,64.49
2019-03-01T13:22:48.403Z,64.50
2019-03-01T13:25:16.851Z,64.36
2019-03-01T13:27:48.673Z,64.50
2019-03-01T13:30:26.327Z,64.98
2019-03-01T13:32:55.162Z,64.87
2019-03-01T13:35:25.960Z,65.01
2019-03-01T13:37:55.255Z,65.50
2019-03-01T13:40:25.267Z,65.87
2019-03-01T13:42:54.073Z,65.74
2019-03-01T13:45:26.477Z,66.08
2019-03-01T13:47:54.941Z,66.23
2019-03-01T13:50:23.864Z,66.18
2019-03-01T13:52:52.531Z,66.26
2019-03-01T13:55:23.642Z,66.39
2019-03-01T13:57:51.548Z,66.66
2019-03-01T14:00:23.359Z,66.74
2019-03-01T14:02:51.992Z,66.86
2019-03-01T14:05:20.525Z,67.12
2019-03-01T14:07:55.538Z,67.33
2019-03-01T14:10:21.934Z,67.40
2019-03-01T14:12:50.394Z,67.56
2019-03-01T14:15:18.955Z,67.55
2019-03-01T14:17:47.721Z,67.25
2019-03-01T14:20:20.603Z,67.21
2019-03-01T14:22:49.242Z,67.33
2019-03-01T14:25:18.337Z,67.31
2019-03-01T14:27:46.847Z,67.08
2019-03-01T14:30:25.483Z,67.10
2019-03-01T14:32:56.892Z,67.09
2019-03-01T14:35:32.129Z,66.76
2019-03-01T14:38:00.664Z,66.96
2019-03-01T14:40:29.120Z,66.96
2019-03-01T14:42:57.588Z,67.08
2019-03-01T14:45:34.159Z,67.12
2019-03-01T14:48:05.082Z,67.29
2019-03-01T14:50:33.561Z,67.27
2019-03-01T14:53:03.156Z,67.28
2019-03-01T14:55:40.443Z,67.08
2019-03-01T14:58:15.204Z,66.98
2019-03-01T15:01:05.182Z,66.91
2019-03-01T15:03:35.418Z,66.81
2019-03-01T15:06:04.318Z,66.90
2019-03-01T15:08:32.780Z,67.06
2019-03-01T15:11:09.445Z,66.96
2019-03-01T15:13:37.911Z,66.99
2019-03-01T15:16:07.303Z,67.11
2019-03-01T15:18:36.844Z,67.24
2019-03-01T15:21:06.547Z,67.37
2019-03-01T15:23:35.394Z,67.26
2019-03-01T15:26:04.315Z,67.44
2019-03-01T15:28:32.865Z,67.36
2019-03-01T15:31:01.545Z,67.44
2019-03-01T15:33:30.283Z,67.49
2019-03-01T15:36:00.998Z,67.50
2019-03-01T15:38:29.479Z,67.80
2019-03-01T15:40:57.983Z,67.83
2019-03-01T15:43:29.731Z,67.72
2019-03-01T15:45:57.398Z,67.88
2019-03-01T15:48:25.881Z,68.06
2019-03-01T15:50:54.339Z,68.15
2019-03-01T15:53:24.908Z,68.17
2019-03-01T15:55:53.000Z,68.27
2019-03-01T15:58:21.554Z,68.14
2019-03-01T16:00:50.085Z,68.13
2019-03-01T16:03:18.599Z,68.23
2019-03-01T16:05:47.066Z,68.38
2019-03-01T16:08:15.560Z,68.49
2019-03-01T16:10:44.030Z,68.54
2019-03-01T16:13:13.264Z,68.59
2019-03-01T16:15:41.869Z,68.69
2019-03-01T16:18:10.378Z,68.74
2019-03-01T16:20:38.836Z,68.65
2019-03-01T16:23:07.807Z,68.69
2019-03-01T16:25:36.256Z,68.66
2019-03-01T16:28:04.785Z,68.83
2019-03-01T16:30:33.323Z,68.99
2019-03-01T16:33:01.829Z,69.12
2019-03-01T16:35:30.303Z,69.23
2019-03-01T16:38:03.145Z,69.28
2019-03-01T16:40:31.648Z,69.48
2019-03-01T16:43:00.106Z,69.63
2019-03-01T16:45:28.578Z,69.77
2019-03-01T16:47:57.075Z,69.89
2019-03-01T16:50:25.543Z,70.14
2019-03-01T16:52:54.016Z,70.33
2019-03-01T16:55:31.580Z,70.56
2019-03-01T16:58:06.746Z,70.75
2019-03-01T17:00:30.241Z,70.98
2019-03-01T17:03:07.658Z,71.27
2019-03-01T17:05:38.768Z,71.55
2019-03-01T17:08:06.403Z,71.75
2019-03-01T17:10:34.951Z,71.75
2019-03-01T17:13:03.422Z,72.39
2019-03-01T17:15:31.903Z,72.57
2019-03-01T17:18:00.418Z,72.68
2019-03-01T17:20:29.055Z,72.80
2019-03-01T17:22:59.650Z,72.79
2019-03-01T17:25:27.884Z,72.80
2019-03-01T17:27:56.399Z,72.84
2019-03-01T17:30:26.555Z,72.84
2019-03-01T17:32:55.047Z,72.76
2019-03-01T17:35:23.515Z,72.71
2019-03-01T17:37:52.063Z,72.73
2019-03-01T17:40:20.902Z,72.73
2019-03-01T17:42:49.451Z,72.82
2019-03-01T17:45:25.694Z,72.86
2019-03-01T17:47:55.366Z,72.78
2019-03-01T17:50:24.168Z,72.84
2019-03-01T17:52:52.676Z,72.80
2019-03-01T17:55:28.696Z,72.80
2019-03-01T17:57:57.204Z,72.80
2019-03-01T18:00:35.686Z,72.83
2019-03-01T18:03:04.755Z,72.96
2019-03-01T18:05:33.222Z,72.93
2019-03-01T18:08:03.560Z,72.87
2019-03-01T18:10:32.968Z,72.70
2019-03-01T18:13:01.661Z,72.55
2019-03-01T18:15:30.122Z,72.51
2019-03-01T18:17:58.624Z,72.55
2019-03-01T18:20:27.095Z,72.66
2019-03-01T18:22:55.561Z,72.78
2019-03-01T18:25:26.324Z,73.04
2019-03-01T18:27:54.284Z,72.95
2019-03-01T18:30:27.592Z,72.94
2019-03-01T18:32:56.089Z,73.03
2019-03-01T18:35:24.546Z,73.03
2019-03-01T18:37:55.003Z,73.04
2019-03-01T18:40:23.242Z,73.49
2019-03-01T18:42:51.700Z,74.09
2019-03-01T18:45:25.413Z,74.48
2019-03-01T18:47:54.054Z,74.76
2019-03-01T18:50:32.330Z,74.83
2019-03-01T18:53:03.705Z,74.87
2019-03-01T18:55:32.325Z,74.97
2019-03-01T18:58:00.775Z,74.97
2019-03-01T19:00:35.823Z,75.28
2019-03-01T19:03:05.587Z,75.44
2019-03-01T19:05:36.543Z,75.64
2019-03-01T19:08:05.818Z,75.74
2019-03-01T19:10:34.843Z,75.81
2019-03-01T19:13:03.305Z,76.01
2019-03-01T19:15:31.786Z,76.20
2019-03-01T19:18:00.261Z,76.40
2019-03-01T19:20:34.211Z,77.08
2019-03-01T19:23:02.690Z,77.11
2019-03-01T19:25:31.227Z,77.29
2019-03-01T19:27:59.697Z,77.29
2019-03-01T19:30:28.197Z,77.39
2019-03-01T19:32:58.923Z,77.50
2019-03-01T19:35:29.791Z,77.49
2019-03-01T19:37:57.074Z,77.66
2019-03-01T19:40:25.524Z,78.15
2019-03-01T19:42:54.002Z,78.15
2019-03-01T19:45:22.495Z,78.22
2019-03-01T19:47:51.022Z,78.17
2019-03-01T19:50:25.090Z,78.13
2019-03-01T19:52:53.876Z,78.54
2019-03-01T19:55:22.336Z,78.59
2019-03-01T19:57:50.800Z,78.59
2019-03-01T20:00:29.287Z,79.03
2019-03-01T20:02:57.792Z,79.55
2019-03-01T20:05:31.724Z,79.55
2019-03-01T20:08:01.390Z,79.53
2019-03-01T20:10:29.904Z,80.03
2019-03-01T20:12:58.439Z,80.03
2019-03-01T20:15:28.938Z,80.03
2019-03-01T20:17:57.428Z,80.20
2019-03-01T20:20:29.934Z,79.96
2019-03-01T20:22:57.668Z,79.96
2019-03-01T20:25:26.142Z,80.60
2019-03-01T20:27:54.603Z,80.91
2019-03-01T20:30:30.139Z,80.45
2019-03-01T20:32:58.483Z,80.45
2019-03-01T20:35:26.964Z,80.75
2019-03-01T20:38:00.196Z,80.91
2019-03-01T20:40:28.038Z,81.69
2019-03-01T20:43:01.306Z,81.49
2019-03-01T20:45:32.024Z,81.49
2019-03-01T20:48:00.482Z,81.04
2019-03-01T20:50:28.981Z,81.04
2019-03-01T20:52:57.558Z,81.86
2019-03-01T20:55:26.032Z,81.86
2019-03-01T20:57:54.883Z,81.87
2019-03-01T21:00:27.355Z,81.94
2019-03-01T21:02:57.116Z,81.94
2019-03-01T21:05:28.844Z,81.51
2019-03-01T21:07:55.764Z,81.70
2019-03-01T21:10:25.575Z,81.66
2019-03-01T21:12:54.161Z,81.67
2019-03-01T21:15:22.792Z,81.59
2019-03-01T21:17:52.818Z,81.73
2019-03-01T21:20:21.511Z,81.76
2019-03-01T21:22:50.150Z,81.61
2019-03-01T21:25:22.761Z,81.61
2019-03-01T21:27:51.230Z,81.83
2019-03-01T21:30:28.473Z,81.83
2019-03-01T21:32:56.935Z,81.56
2019-03-01T21:35:25.459Z,81.63
2019-03-01T21:37:54.025Z,81.60
2019-03-01T21:40:22.568Z,81.60
2019-03-01T21:42:52.927Z,81.91
2019-03-01T21:45:24.872Z,81.93
2019-03-01T21:47:53.341Z,81.93
2019-03-01T21:50:21.799Z,82.34
2019-03-01T21:52:50.361Z,81.90
2019-03-01T21:55:25.019Z,82.69
2019-03-01T21:57:51.710Z,82.69
2019-03-01T22:00:25.422Z,81.96
2019-03-01T22:02:54.214Z,81.96
2019-03-01T22:05:23.194Z,82.00
2019-03-01T22:07:52.006Z,81.78
2019-03-01T22:10:20.514Z,81.78
2019-03-01T22:12:48.966Z,82.01
2019-03-01T22:15:25.382Z,82.30
2019-03-01T22:17:52.570Z,82.30
2019-03-01T22:20:22.278Z,82.11
2019-03-01T22:22:50.792Z,81.90
2019-03-01T22:25:19.252Z,82.02
2019-03-01T22:27:47.711Z,82.12
2019-03-01T22:30:30.312Z,82.00
2019-03-01T22:32:58.767Z,82.05
2019-03-01T22:35:27.233Z,81.92
2019-03-01T22:37:55.730Z,81.98
2019-03-01T22:40:27.980Z,82.01
2019-03-01T22:42:54.394Z,82.35
2019-03-01T22:45:22.877Z,82.35
2019-03-01T22:47:51.351Z,82.37
2019-03-01T22:50:20.643Z,82.29
2019-03-01T22:52:49.115Z,82.54
2019-03-01T22:55:18.616Z,82.56
2019-03-01T22:57:47.097Z,82.17
2019-03-01T23:00:50.813Z,82.17
2019-03-01T23:03:20.225Z,82.43
2019-03-01T23:05:49.081Z,82.38
2019-03-01T23:08:18.540Z,82.28
2019-03-01T23:10:47.016Z,82.23
2019-03-01T23:13:16.880Z,82.50
2019-03-01T23:15:45.768Z,82.50
2019-03-01T23:18:14.219Z,82.28
2019-03-01T23:20:42.671Z,82.29
2019-03-01T23:23:11.182Z,82.29
2019-03-01T23:25:42.704Z,82.40
2019-03-01T23:28:09.829Z,82.53
2019-03-01T23:30:38.327Z,82.51
2019-03-01T23:33:06.863Z,82.50
2019-03-01T23:35:35.490Z,82.49
2019-03-01T23:38:03.999Z,82.53
2019-03-01T23:40:32.790Z,82.53
2019-03-01T23:43:02.664Z,82.49
2019-03-01T23:45:31.127Z,82.49
2019-03-01T23:47:59.584Z,82.58
2019-03-01T23:50:28.060Z,82.52
2019-03-01T23:52:58.794Z,82.42
2019-03-01T23:55:26.748Z,82.43
2019-03-01T23:57:55.255Z,82.47
